Time;durP1;ratioP1;P1;durP2;ratioP2;P2;SDS_P1;SDS_P2;PMS_P1;PMS_P2;Temp;Humidity;BMP_temperature;BMP_pressure;BME280_temperature;BME280_humidity;BME280_pressure;Samples;Min_cycle;Max_cycle;Signal;HPM_P1;HPM_P2
2023/10/14 00:01:11;;;;;;;;;0.67;0.00;;;;;;;;5122914;28;10146;-77
2023/10/14 00:03:41;;;;;;;;;1.25;0.00;;;;;;;;5124560;27;9465;-77
2023/10/14 00:06:06;;;;;;;;;0.00;0.00;;;;;;;;5122781;28;9637;-77
2023/10/14 00:08:35;;;;;;;;;0.33;0.00;;;;;;;;5128620;27;9391;-77
2023/10/14 00:11:01;;;;;;;;;0.25;0.00;;;;;;;;5144939;27;8929;-77
2023/10/14 00:13:30;;;;;;;;;0.67;0.00;;;;;;;;5144806;27;9582;-77
2023/10/14 00:15:58;;;;;;;;;0.00;0.00;;;;;;;;5144987;27;9341;-77
2023/10/14 00:18:26;;;;;;;;;0.00;0.00;;;;;;;;5144056;27;9332;-77
2023/10/14 00:20:51;;;;;;;;;0.00;0.00;;;;;;;;5135689;27;10057;-77
2023/10/14 00:23:16;;;;;;;;;1.00;0.00;;;;;;;;5124420;28;8775;-77
2023/10/14 00:25:43;;;;;;;;;1.00;0.00;;;;;;;;5123145;28;8833;-77
2023/10/14 00:28:12;;;;;;;;;0.00;0.00;;;;;;;;5124315;27;9011;-77
2023/10/14 00:30:38;;;;;;;;;0.00;0.00;;;;;;;;5124197;28;9650;-76
2023/10/14 00:33:03;;;;;;;;;1.00;0.00;;;;;;;;5123695;27;9463;-76
2023/10/14 00:35:28;;;;;;;;;0.00;0.00;;;;;;;;5124060;28;8849;-76
2023/10/14 00:37:55;;;;;;;;;0.00;0.00;;;;;;;;5124386;28;8818;-76
2023/10/14 00:40:23;;;;;;;;;0.00;0.00;;;;;;;;5124040;28;8766;-76
2023/10/14 00:42:50;;;;;;;;;0.00;0.00;;;;;;;;5123766;28;9716;-76
2023/10/14 00:45:20;;;;;;;;;1.00;0.00;;;;;;;;5139412;27;9603;-76
2023/10/14 00:47:45;;;;;;;;;0.00;0.00;;;;;;;;5117611;28;9716;-76
2023/10/14 00:52:57;;;;;;;;;0.00;0.00;;;;;;;;5124137;28;8704;-76
2023/10/14 00:55:36;;;;;;;;;0.00;0.00;;;;;;;;5123609;28;9571;-76
2023/10/14 00:58:01;;;;;;;;;0.00;0.00;;;;;;;;5123987;28;9719;-76
2023/10/14 01:00:45;;;;;;;;;1.25;0.00;;;;;;;;5142288;27;9972;-76
2023/10/14 01:03:14;;;;;;;;;0.00;0.00;;;;;;;;5144432;27;8773;-76
2023/10/14 01:05:39;;;;;;;;;0.00;0.00;;;;;;;;5144449;27;9659;-76
2023/10/14 01:08:13;;;;;;;;;0.00;0.00;;;;;;;;5144228;27;9720;-76
2023/10/14 01:10:39;;;;;;;;;1.00;0.00;;;;;;;;5141104;27;8761;-76
2023/10/14 01:13:13;;;;;;;;;0.00;0.00;;;;;;;;5121755;28;9417;-77
2023/10/14 01:15:42;;;;;;;;;0.00;0.00;;;;;;;;5123368;28;8888;-77
2023/10/14 01:18:07;;;;;;;;;0.00;0.00;;;;;;;;5123179;28;9593;-77
2023/10/14 01:20:37;;;;;;;;;0.00;0.00;;;;;;;;5121860;28;9921;-76
2023/10/14 01:23:07;;;;;;;;;1.00;0.00;;;;;;;;5122665;28;8772;-77
2023/10/14 01:25:32;;;;;;;;;0.00;0.00;;;;;;;;5122202;28;9693;-76
2023/10/14 01:27:59;;;;;;;;;0.00;0.00;;;;;;;;5122829;28;9555;-77
2023/10/14 01:30:32;;;;;;;;;0.00;0.00;;;;;;;;5122208;27;8756;-76
2023/10/14 01:33:11;;;;;;;;;0.25;0.00;;;;;;;;5122217;28;9760;-77
2023/10/14 01:35:41;;;;;;;;;0.00;0.00;;;;;;;;5138747;27;9764;-77
2023/10/14 01:38:07;;;;;;;;;1.00;0.00;;;;;;;;5123109;28;9697;-77
2023/10/14 01:43:08;;;;;;;;;1.00;0.00;;;;;;;;5142562;27;8705;-77
2023/10/14 01:45:42;;;;;;;;;0.25;0.00;;;;;;;;5128677;27;9966;-77
2023/10/14 01:50:45;;;;;;;;;0.00;0.00;;;;;;;;5121955;27;10047;-76
2023/10/14 01:53:12;;;;;;;;;1.75;0.00;;;;;;;;5122941;28;9806;-76
2023/10/14 01:55:41;;;;;;;;;0.50;0.00;;;;;;;;5122646;28;9880;-77
2023/10/14 01:58:10;;;;;;;;;2.75;0.00;;;;;;;;5134443;27;9701;-77
2023/10/14 02:00:38;;;;;;;;;0.00;0.00;;;;;;;;5142053;27;11252;-77
2023/10/14 02:03:06;;;;;;;;;3.00;0.00;;;;;;;;5138059;27;9921;-76
2023/10/14 02:05:40;;;;;;;;;0.75;0.75;;;;;;;;5129967;27;9949;-77
2023/10/14 02:08:13;;;;;;;;;0.00;0.00;;;;;;;;5143504;27;10136;-76
2023/10/14 02:10:39;;;;;;;;;0.00;0.00;;;;;;;;5124499;27;10210;-77
2023/10/14 02:13:04;;;;;;;;;0.00;0.00;;;;;;;;5122042;28;10171;-76
2023/10/14 02:15:29;;;;;;;;;1.00;1.00;;;;;;;;5122833;28;8771;-76
2023/10/14 02:17:55;;;;;;;;;0.75;0.00;;;;;;;;5133206;27;8873;-76
2023/10/14 02:20:20;;;;;;;;;1.50;0.00;;;;;;;;5142908;27;8800;-76
2023/10/14 02:22:46;;;;;;;;;0.00;0.00;;;;;;;;5129942;27;8792;-76
2023/10/14 02:25:15;;;;;;;;;1.00;0.00;;;;;;;;5143594;27;8736;-76
2023/10/14 02:27:42;;;;;;;;;0.00;0.00;;;;;;;;5142398;27;10099;-76
2023/10/14 02:30:08;;;;;;;;;1.25;0.00;;;;;;;;5143394;27;10244;-76
2023/10/14 02:32:34;;;;;;;;;0.00;0.00;;;;;;;;5127078;27;10120;-76
2023/10/14 02:34:59;;;;;;;;;1.25;0.25;;;;;;;;5122395;28;8858;-77
2023/10/14 02:37:24;;;;;;;;;0.75;0.75;;;;;;;;5122761;28;8893;-77
2023/10/14 02:39:50;;;;;;;;;0.00;0.00;;;;;;;;5122509;28;8815;-76
2023/10/14 02:42:16;;;;;;;;;0.00;0.00;;;;;;;;5137911;27;8799;-76
2023/10/14 02:44:44;;;;;;;;;2.75;0.00;;;;;;;;5121900;28;8826;-76
2023/10/14 02:47:10;;;;;;;;;0.00;0.00;;;;;;;;5120918;28;8923;-76
2023/10/14 02:49:42;;;;;;;;;1.00;0.00;;;;;;;;5121943;28;10403;-76
2023/10/14 02:52:10;;;;;;;;;1.00;1.00;;;;;;;;5131683;27;8812;-76
2023/10/14 02:54:36;;;;;;;;;1.00;1.00;;;;;;;;5129760;27;9997;-76
2023/10/14 02:59:45;;;;;;;;;2.50;0.50;;;;;;;;5125546;27;10336;-76
2023/10/14 03:04:45;;;;;;;;;3.25;0.00;;;;;;;;5125870;28;8795;-76
2023/10/14 03:07:11;;;;;;;;;3.25;1.00;;;;;;;;5124143;28;10202;-76
2023/10/14 03:09:36;;;;;;;;;1.75;1.00;;;;;;;;5125287;27;10467;-76
2023/10/14 03:12:01;;;;;;;;;0.00;0.00;;;;;;;;5125314;27;8807;-76
2023/10/14 03:14:27;;;;;;;;;1.00;0.00;;;;;;;;5125336;28;8769;-76
2023/10/14 03:16:53;;;;;;;;;1.50;0.00;;;;;;;;5141753;27;8725;-76
2023/10/14 03:19:18;;;;;;;;;2.25;0.00;;;;;;;;5143545;27;11021;-76
2023/10/14 03:21:58;;;;;;;;;1.00;0.00;;;;;;;;5145634;27;8792;-76
2023/10/14 03:24:25;;;;;;;;;2.50;0.00;;;;;;;;5144872;27;8792;-76
2023/10/14 03:26:57;;;;;;;;;1.00;1.00;;;;;;;;5145047;27;9855;-76
2023/10/14 03:29:23;;;;;;;;;1.00;1.00;;;;;;;;5146056;27;10392;-76
2023/10/14 03:31:50;;;;;;;;;1.00;0.00;;;;;;;;5145650;27;10336;-76
2023/10/14 03:34:17;;;;;;;;;2.50;1.00;;;;;;;;5144501;27;8785;-76
2023/10/14 03:36:43;;;;;;;;;2.00;0.00;;;;;;;;5145468;27;10237;-76
2023/10/14 03:39:37;;;;;;;;;4.00;0.00;;;;;;;;5145499;27;10428;-76
2023/10/14 03:42:10;;;;;;;;;5.00;0.00;;;;;;;;5145451;27;10235;-76
2023/10/14 03:44:35;;;;;;;;;2.00;0.00;;;;;;;;5145459;27;10305;-76
2023/10/14 03:47:00;;;;;;;;;0.00;0.00;;;;;;;;5142963;27;10227;-76
2023/10/14 03:49:26;;;;;;;;;1.00;1.00;;;;;;;;5124821;28;8818;-76
2023/10/14 03:51:56;;;;;;;;;1.00;0.00;;;;;;;;5130443;27;8765;-76
2023/10/14 03:54:26;;;;;;;;;1.00;0.00;;;;;;;;5144111;27;8847;-76
2023/10/14 03:56:51;;;;;;;;;0.00;0.00;;;;;;;;5143831;27;10226;-76
2023/10/14 03:59:22;;;;;;;;;2.00;0.75;;;;;;;;5145571;27;10467;-76
2023/10/14 04:01:51;;;;;;;;;1.00;1.00;;;;;;;;5145458;27;8772;-76
2023/10/14 04:04:23;;;;;;;;;4.75;0.50;;;;;;;;5145504;27;10501;-76
2023/10/14 04:09:24;;;;;;;;;3.25;1.00;;;;;;;;5144867;27;10529;-76
2023/10/14 04:11:52;;;;;;;;;0.00;0.00;;;;;;;;5145585;27;10537;-76
2023/10/14 04:14:22;;;;;;;;;2.00;0.00;;;;;;;;5144579;27;8734;-76
2023/10/14 04:16:48;;;;;;;;;1.00;0.00;;;;;;;;5130355;27;10539;-76
2023/10/14 04:22:00;;;;;;;;;1.00;0.00;;;;;;;;5125397;28;10372;-77
2023/10/14 04:24:44;;;;;;;;;1.50;1.50;;;;;;;;5131934;27;10407;-76
2023/10/14 04:29:58;;;;;;;;;1.00;1.00;;;;;;;;5145265;27;10722;-76
2023/10/14 04:32:41;;;;;;;;;2.75;1.00;;;;;;;;5134999;27;10380;-76
2023/10/14 04:35:07;;;;;;;;;0.00;0.00;;;;;;;;5124107;28;10349;-76
2023/10/14 04:37:50;;;;;;;;;3.00;0.00;;;;;;;;5123535;28;10473;-76
2023/10/14 04:40:53;;;;;;;;;0.00;0.00;;;;;;;;5130966;27;8885;-76
2023/10/14 04:45:51;;;;;;;;;0.75;0.75;;;;;;;;5144857;27;10327;-76
2023/10/14 04:48:35;;;;;;;;;2.00;1.00;;;;;;;;5129746;27;10277;-76
2023/10/14 04:51:09;;;;;;;;;0.00;0.00;;;;;;;;5123682;28;10723;-76
2023/10/14 04:53:34;;;;;;;;;0.00;0.00;;;;;;;;5123580;28;10455;-76
2023/10/14 04:56:04;;;;;;;;;1.25;0.00;;;;;;;;5123883;28;10694;-76
2023/10/14 04:58:32;;;;;;;;;2.75;1.00;;;;;;;;5130782;27;8804;-76
2023/10/14 05:01:00;;;;;;;;;0.25;0.00;;;;;;;;5144425;27;10554;-76
2023/10/14 05:03:27;;;;;;;;;3.75;0.00;;;;;;;;5127890;27;10551;-76
2023/10/14 05:05:56;;;;;;;;;0.25;0.25;;;;;;;;5122313;28;10661;-76
2023/10/14 05:08:22;;;;;;;;;0.00;0.00;;;;;;;;5130104;27;10653;-76
2023/10/14 05:10:52;;;;;;;;;1.00;1.00;;;;;;;;5142906;27;10634;-76
2023/10/14 05:13:19;;;;;;;;;0.00;0.00;;;;;;;;5143724;27;10658;-76
2023/10/14 05:15:52;;;;;;;;;3.75;0.75;;;;;;;;5144497;27;10536;-76
2023/10/14 05:18:27;;;;;;;;;1.50;0.00;;;;;;;;5142122;27;10378;-76
2023/10/14 05:23:24;;;;;;;;;1.50;1.00;;;;;;;;5122772;28;10533;-76
2023/10/14 05:25:50;;;;;;;;;0.75;0.00;;;;;;;;5121192;28;8752;-76
2023/10/14 05:28:16;;;;;;;;;2.50;1.00;;;;;;;;5121684;28;10623;-76
2023/10/14 05:30:46;;;;;;;;;0.50;0.50;;;;;;;;5122305;28;10474;-76
2023/10/14 05:33:14;;;;;;;;;2.00;1.00;;;;;;;;5122179;28;10605;-76
2023/10/14 05:35:42;;;;;;;;;0.50;0.00;;;;;;;;5121391;28;10590;-76
2023/10/14 05:38:10;;;;;;;;;4.25;0.50;;;;;;;;5120870;28;10810;-76
2023/10/14 05:40:37;;;;;;;;;1.75;1.25;;;;;;;;5122191;28;10923;-76
2023/10/14 05:43:02;;;;;;;;;1.00;1.00;;;;;;;;5133365;27;10719;-76
2023/10/14 05:45:27;;;;;;;;;1.75;1.50;;;;;;;;5143614;27;10746;-76
2023/10/14 05:47:53;;;;;;;;;0.00;0.00;;;;;;;;5134001;27;8874;-76
2023/10/14 05:50:19;;;;;;;;;2.25;1.00;;;;;;;;5120792;28;11178;-77
2023/10/14 05:52:46;;;;;;;;;1.75;0.50;;;;;;;;5130751;27;10835;-76
2023/10/14 05:55:11;;;;;;;;;2.00;1.00;;;;;;;;5143766;27;8721;-76
2023/10/14 05:57:39;;;;;;;;;5.25;2.00;;;;;;;;5134665;27;10702;-78
2023/10/14 06:00:20;;;;;;;;;2.00;1.00;;;;;;;;5122507;27;8760;-78
2023/10/14 06:02:49;;;;;;;;;2.00;0.00;;;;;;;;5120976;28;10748;-78
2023/10/14 06:05:18;;;;;;;;;2.50;1.00;;;;;;;;5119562;28;10676;-78
2023/10/14 06:07:46;;;;;;;;;2.00;0.00;;;;;;;;5122340;27;10509;-78
2023/10/14 06:10:12;;;;;;;;;3.75;1.00;;;;;;;;5122453;27;10595;-78
2023/10/14 06:12:37;;;;;;;;;2.50;0.00;;;;;;;;5121978;27;11157;-78
2023/10/14 06:15:09;;;;;;;;;2.25;0.25;;;;;;;;5140651;27;8796;-78
2023/10/14 06:17:38;;;;;;;;;1.00;1.00;;;;;;;;5143184;27;8749;-77
2023/10/14 06:20:04;;;;;;;;;3.00;1.00;;;;;;;;5128208;27;10768;-77
2023/10/14 06:22:30;;;;;;;;;3.75;0.50;;;;;;;;5122892;28;10675;-78
2023/10/14 06:24:55;;;;;;;;;1.50;1.00;;;;;;;;5122801;27;8819;-78
2023/10/14 06:27:24;;;;;;;;;4.50;0.25;;;;;;;;5120945;28;8821;-88
2023/10/14 06:29:50;;;;;;;;;1.00;0.00;;;;;;;;5121041;28;10068;-79
2023/10/14 06:32:16;;;;;;;;;1.00;0.75;;;;;;;;5144431;27;10587;-77
2023/10/14 06:34:41;;;;;;;;;1.25;1.25;;;;;;;;5141762;27;8769;-78
2023/10/14 06:37:07;;;;;;;;;2.25;0.50;;;;;;;;5125498;27;8852;-77
2023/10/14 06:39:39;;;;;;;;;1.50;1.00;;;;;;;;5124555;28;10308;-76
2023/10/14 06:42:04;;;;;;;;;1.75;1.00;;;;;;;;5125902;27;8878;-87
2023/10/14 06:44:32;;;;;;;;;2.00;1.00;;;;;;;;5144790;27;10678;-87
2023/10/14 06:46:57;;;;;;;;;1.00;1.00;;;;;;;;5125162;27;8718;-87
2023/10/14 06:49:36;;;;;;;;;3.25;1.25;;;;;;;;5135494;27;10880;-76
2023/10/14 06:52:04;;;;;;;;;2.75;1.00;;;;;;;;5145380;27;8727;-75
2023/10/14 06:54:30;;;;;;;;;2.00;1.00;;;;;;;;5146082;27;10573;-76
2023/10/14 06:56:56;;;;;;;;;1.50;1.50;;;;;;;;5131111;27;10878;-76
2023/10/14 06:59:21;;;;;;;;;2.00;0.50;;;;;;;;5124908;28;10731;-76
2023/10/14 07:01:46;;;;;;;;;2.00;1.00;;;;;;;;5125120;27;8828;-75
2023/10/14 07:04:16;;;;;;;;;1.50;0.50;;;;;;;;5124723;28;8804;-75
2023/10/14 07:06:47;;;;;;;;;3.50;1.00;;;;;;;;5128195;27;8729;-76
2023/10/14 07:09:17;;;;;;;;;0.75;0.75;;;;;;;;5146040;27;10730;-75
2023/10/14 07:11:45;;;;;;;;;3.50;1.00;;;;;;;;5143272;27;10547;-76
2023/10/14 07:14:11;;;;;;;;;2.00;1.00;;;;;;;;5136591;27;10478;-74
2023/10/14 07:16:36;;;;;;;;;1.00;1.00;;;;;;;;5144564;27;10590;-76
2023/10/14 07:19:01;;;;;;;;;1.25;0.25;;;;;;;;5139166;27;10220;-75
2023/10/14 07:21:29;;;;;;;;;4.75;0.75;;;;;;;;5129617;27;8807;-74
2023/10/14 07:23:54;;;;;;;;;0.00;0.00;;;;;;;;5124026;27;8787;-74
2023/10/14 07:26:19;;;;;;;;;0.00;0.00;;;;;;;;5123998;27;10267;-74
2023/10/14 07:28:51;;;;;;;;;0.00;0.00;;;;;;;;5124799;28;8811;-74
2023/10/14 07:31:16;;;;;;;;;2.00;0.00;;;;;;;;5124562;28;8748;-75
2023/10/14 07:33:41;;;;;;;;;1.00;1.00;;;;;;;;5123360;28;10265;-75
2023/10/14 07:36:07;;;;;;;;;0.25;0.25;;;;;;;;5124750;27;8803;-75
2023/10/14 07:38:34;;;;;;;;;2.50;0.00;;;;;;;;5124778;27;8827;-75
2023/10/14 07:41:01;;;;;;;;;1.75;0.00;;;;;;;;5125306;28;8832;-75
2023/10/14 07:43:26;;;;;;;;;0.00;0.00;;;;;;;;5123130;28;10297;-75
2023/10/14 07:45:52;;;;;;;;;0.00;0.00;;;;;;;;5125291;28;10300;-75
2023/10/14 07:48:19;;;;;;;;;3.50;1.00;;;;;;;;5123333;27;8905;-75
2023/10/14 07:50:47;;;;;;;;;2.50;0.75;;;;;;;;5116192;27;8952;-76
2023/10/14 07:53:13;;;;;;;;;0.75;0.50;;;;;;;;5112713;27;10372;-75
2023/10/14 07:55:43;;;;;;;;;1.00;1.00;;;;;;;;5114188;28;10239;-75
2023/10/14 07:58:09;;;;;;;;;0.75;0.75;;;;;;;;5117555;27;8821;-76
2023/10/14 08:00:38;;;;;;;;;0.00;0.00;;;;;;;;5130425;27;10346;-75
2023/10/14 08:03:06;;;;;;;;;1.25;1.00;;;;;;;;5114527;28;10261;-75
2023/10/14 08:05:33;;;;;;;;;5.25;2.25;;;;;;;;5128055;27;10403;-76
2023/10/14 08:08:05;;;;;;;;;1.00;1.00;;;;;;;;5112836;28;10555;-75
2023/10/14 08:10:31;;;;;;;;;1.00;1.00;;;;;;;;5127550;27;10628;-76
2023/10/14 08:12:57;;;;;;;;;2.00;1.00;;;;;;;;5105918;28;10575;-75
2023/10/14 08:15:22;;;;;;;;;2.25;0.00;;;;;;;;5111380;27;8772;-75
2023/10/14 08:17:51;;;;;;;;;8.50;0.75;;;;;;;;5133922;27;8871;-75
2023/10/14 08:20:19;;;;;;;;;1.50;1.00;;;;;;;;5112504;28;8871;-76
2023/10/14 08:22:45;;;;;;;;;0.00;0.00;;;;;;;;5114413;28;10469;-75
2023/10/14 08:25:10;;;;;;;;;0.00;0.00;;;;;;;;5128599;27;10400;-75
2023/10/14 08:27:36;;;;;;;;;0.75;0.75;;;;;;;;5113691;28;8819;-75
2023/10/14 08:30:10;;;;;;;;;0.00;0.00;;;;;;;;5115128;27;8815;-75
2023/10/14 08:32:37;;;;;;;;;0.00;0.00;;;;;;;;5116288;28;8741;-76
2023/10/14 08:35:03;;;;;;;;;3.75;1.00;;;;;;;;5130428;27;10385;-76
2023/10/14 08:37:28;;;;;;;;;3.00;1.00;;;;;;;;5113691;28;10576;-75
2023/10/14 08:39:53;;;;;;;;;0.00;0.00;;;;;;;;5131917;27;8833;-74
2023/10/14 08:42:19;;;;;;;;;2.50;0.50;;;;;;;;5114396;27;8796;-75
2023/10/14 08:44:45;;;;;;;;;1.00;1.00;;;;;;;;5144614;27;8883;-75
2023/10/14 08:47:13;;;;;;;;;0.00;0.00;;;;;;;;5109812;27;9912;-76
2023/10/14 08:49:40;;;;;;;;;0.25;0.00;;;;;;;;5133474;27;10323;-75
2023/10/14 08:52:09;;;;;;;;;2.00;0.50;;;;;;;;5135272;27;10412;-75
2023/10/14 08:54:34;;;;;;;;;1.75;0.00;;;;;;;;5121801;28;10354;-75
2023/10/14 08:56:59;;;;;;;;;1.50;0.00;;;;;;;;5122563;28;10449;-75
2023/10/14 08:59:25;;;;;;;;;1.00;0.00;;;;;;;;5116779;28;8802;-75
2023/10/14 09:01:52;;;;;;;;;0.00;0.00;;;;;;;;5130605;27;8790;-76
2023/10/14 09:04:28;;;;;;;;;0.00;0.00;;;;;;;;5119959;27;8727;-76
2023/10/14 09:06:58;;;;;;;;;0.00;0.00;;;;;;;;5123562;28;10471;-75
2023/10/14 09:09:23;;;;;;;;;1.25;0.00;;;;;;;;5123361;28;11321;-76
2023/10/14 09:11:51;;;;;;;;;1.00;1.00;;;;;;;;5120719;27;10394;-77
2023/10/14 09:14:17;;;;;;;;;0.75;0.75;;;;;;;;5137497;27;8814;-75
2023/10/14 09:16:48;;;;;;;;;0.00;0.00;;;;;;;;5120886;28;10543;-74
2023/10/14 09:19:15;;;;;;;;;0.00;0.00;;;;;;;;5120185;27;10273;-76
2023/10/14 09:21:43;;;;;;;;;0.75;0.00;;;;;;;;5120302;28;10261;-78
2023/10/14 09:24:08;;;;;;;;;2.00;0.00;;;;;;;;5123337;27;10223;-76
2023/10/14 09:26:43;;;;;;;;;2.00;0.75;;;;;;;;5122990;27;10976;-76
2023/10/14 09:29:09;;;;;;;;;1.50;1.00;;;;;;;;5123423;27;8759;-75
2023/10/14 09:31:38;;;;;;;;;0.00;0.00;;;;;;;;5122790;28;10351;-75
2023/10/14 09:34:04;;;;;;;;;1.00;1.00;;;;;;;;5120366;28;10066;-75
2023/10/14 09:36:33;;;;;;;;;1.00;1.00;;;;;;;;5133986;27;10327;-75
2023/10/14 09:39:00;;;;;;;;;0.25;0.00;;;;;;;;5121934;27;9785;-74
2023/10/14 09:41:28;;;;;;;;;1.00;1.00;;;;;;;;5122627;27;10173;-74
2023/10/14 09:43:54;;;;;;;;;1.25;1.00;;;;;;;;5121476;27;10176;-75
2023/10/14 09:46:20;;;;;;;;;1.00;1.00;;;;;;;;5121061;28;10176;-75
2023/10/14 09:48:46;;;;;;;;;1.00;0.00;;;;;;;;5120127;28;10372;-74
2023/10/14 09:51:12;;;;;;;;;0.75;0.00;;;;;;;;5121305;27;8807;-75
2023/10/14 09:53:38;;;;;;;;;1.00;0.00;;;;;;;;5127042;27;8883;-75
2023/10/14 09:56:07;;;;;;;;;1.00;1.00;;;;;;;;5124972;27;9940;-76
2023/10/14 09:58:36;;;;;;;;;4.00;1.50;;;;;;;;5127141;27;9877;-80
2023/10/14 10:01:03;;;;;;;;;1.50;0.00;;;;;;;;5128002;27;10000;-80
2023/10/14 10:03:30;;;;;;;;;5.50;0.00;;;;;;;;5122068;27;9943;-79
2023/10/14 10:06:20;;;;;;;;;1.00;1.00;;;;;;;;5124435;27;9833;-80
2023/10/14 10:09:04;;;;;;;;;0.00;0.00;;;;;;;;5123199;27;9960;-81
2023/10/14 10:11:30;;;;;;;;;0.00;0.00;;;;;;;;5121190;27;9910;-81
2023/10/14 10:13:59;;;;;;;;;2.75;0.00;;;;;;;;5121976;27;9947;-76
2023/10/14 10:16:28;;;;;;;;;1.00;1.00;;;;;;;;5138442;27;10143;-77
2023/10/14 10:18:58;;;;;;;;;1.25;0.00;;;;;;;;5128044;27;9906;-76
2023/10/14 10:21:30;;;;;;;;;1.50;1.00;;;;;;;;5133884;27;10002;-76
2023/10/14 10:24:14;;;;;;;;;0.50;0.50;;;;;;;;5134998;27;9975;-76
2023/10/14 10:27:04;;;;;;;;;0.00;0.00;;;;;;;;5148405;27;10172;-76
2023/10/14 10:29:33;;;;;;;;;2.75;1.25;;;;;;;;5138213;27;9930;-77
2023/10/14 10:32:06;;;;;;;;;0.00;0.00;;;;;;;;5153031;27;10016;-76
2023/10/14 10:34:33;;;;;;;;;3.25;0.00;;;;;;;;5138350;27;9936;-76
2023/10/14 10:36:59;;;;;;;;;3.00;0.00;;;;;;;;5118257;28;10065;-76
2023/10/14 10:39:24;;;;;;;;;1.00;0.00;;;;;;;;5120581;27;10159;-76
2023/10/14 10:41:50;;;;;;;;;0.75;0.75;;;;;;;;5119553;28;10061;-74
2023/10/14 10:44:16;;;;;;;;;4.25;0.00;;;;;;;;5120447;28;8787;-76
2023/10/14 10:46:44;;;;;;;;;3.25;0.75;;;;;;;;5121753;27;8811;-75
2023/10/14 10:49:11;;;;;;;;;1.50;0.00;;;;;;;;5122354;28;8749;-78
2023/10/14 10:51:42;;;;;;;;;3.75;0.00;;;;;;;;5120951;28;10056;-79
2023/10/14 10:54:09;;;;;;;;;0.25;0.00;;;;;;;;5121366;27;10140;-78
2023/10/14 10:56:34;;;;;;;;;1.50;0.50;;;;;;;;5127618;27;10269;-78
2023/10/14 10:59:01;;;;;;;;;0.00;0.00;;;;;;;;5142421;27;10062;-75
2023/10/14 11:01:33;;;;;;;;;1.75;0.00;;;;;;;;5135271;27;8807;-77
2023/10/14 11:03:59;;;;;;;;;0.00;0.00;;;;;;;;5119535;28;9899;-77
2023/10/14 11:06:25;;;;;;;;;0.00;0.00;;;;;;;;5121235;28;10166;-78
2023/10/14 11:08:51;;;;;;;;;1.50;0.00;;;;;;;;5120311;27;9959;-75
2023/10/14 11:11:16;;;;;;;;;0.00;0.00;;;;;;;;5120974;28;10110;-77
2023/10/14 11:13:42;;;;;;;;;1.00;0.00;;;;;;;;5117873;27;8937;-77
2023/10/14 11:16:13;;;;;;;;;0.00;0.00;;;;;;;;5136248;27;9842;-78
2023/10/14 11:18:46;;;;;;;;;2.00;0.00;;;;;;;;5129849;27;9779;-78
2023/10/14 11:21:12;;;;;;;;;1.00;0.00;;;;;;;;5128673;27;10038;-78
2023/10/14 11:23:39;;;;;;;;;0.50;0.00;;;;;;;;5125768;27;10128;-78
2023/10/14 11:26:08;;;;;;;;;0.00;0.00;;;;;;;;5125112;27;9294;-78
2023/10/14 11:28:33;;;;;;;;;2.00;0.00;;;;;;;;5123583;27;11019;-79
2023/10/14 11:30:58;;;;;;;;;0.75;0.00;;;;;;;;5124136;28;10208;-78
2023/10/14 11:33:25;;;;;;;;;3.50;0.00;;;;;;;;5123783;27;8865;-78
2023/10/14 11:35:50;;;;;;;;;2.00;0.00;;;;;;;;5124372;27;8775;-78
2023/10/14 11:38:15;;;;;;;;;0.00;0.00;;;;;;;;5123552;28;10153;-77
2023/10/14 11:40:49;;;;;;;;;1.00;0.50;;;;;;;;5124049;28;8839;-78
2023/10/14 11:43:15;;;;;;;;;1.75;1.00;;;;;;;;5139204;27;8807;-78
2023/10/14 11:45:43;;;;;;;;;1.25;1.00;;;;;;;;5131367;27;11287;-75
2023/10/14 11:48:30;;;;;;;;;0.75;0.25;;;;;;;;5134385;27;10041;-75
2023/10/14 11:50:59;;;;;;;;;2.00;1.00;;;;;;;;5129687;27;10032;-76
2023/10/14 11:53:32;;;;;;;;;1.00;1.00;;;;;;;;5127070;27;9981;-75
2023/10/14 11:55:58;;;;;;;;;0.75;0.75;;;;;;;;5123958;27;10125;-75
2023/10/14 11:58:33;;;;;;;;;2.00;1.75;;;;;;;;5124315;28;9929;-75
2023/10/14 12:00:58;;;;;;;;;2.00;0.75;;;;;;;;5126087;27;10077;-73
2023/10/14 12:03:27;;;;;;;;;2.25;2.25;;;;;;;;5121495;28;10119;-81
2023/10/14 12:05:57;;;;;;;;;2.75;1.50;;;;;;;;5118337;27;8727;-81
2023/10/14 12:08:23;;;;;;;;;0.00;0.00;;;;;;;;5121255;27;10986;-83
2023/10/14 12:10:48;;;;;;;;;0.25;0.25;;;;;;;;5122240;28;9702;-79
2023/10/14 12:13:13;;;;;;;;;1.00;1.00;;;;;;;;5128382;27;8822;-81
2023/10/14 12:15:38;;;;;;;;;4.00;2.00;;;;;;;;5124826;27;8842;-80
2023/10/14 12:18:06;;;;;;;;;2.00;1.50;;;;;;;;5122160;27;8817;-81
2023/10/14 12:20:31;;;;;;;;;2.75;1.75;;;;;;;;5114690;28;8776;-82
2023/10/14 12:22:57;;;;;;;;;2.50;1.00;;;;;;;;5138794;27;9719;-84
2023/10/14 12:25:22;;;;;;;;;0.00;0.00;;;;;;;;5120075;27;9964;-83
2023/10/14 12:27:48;;;;;;;;;0.25;0.00;;;;;;;;5119564;27;8846;-81
2023/10/14 12:30:29;;;;;;;;;1.75;0.75;;;;;;;;5129788;27;8841;-81
2023/10/14 12:32:54;;;;;;;;;3.50;0.00;;;;;;;;5118541;27;8872;-82
2023/10/14 12:35:27;;;;;;;;;2.25;0.75;;;;;;;;5122095;27;10243;-82
2023/10/14 12:37:53;;;;;;;;;2.50;1.00;;;;;;;;5121517;27;8819;-82
2023/10/14 12:40:24;;;;;;;;;0.00;0.00;;;;;;;;5120234;27;10136;-82
2023/10/14 12:42:49;;;;;;;;;0.25;0.25;;;;;;;;5135987;27;8910;-82
2023/10/14 12:45:22;;;;;;;;;0.50;0.00;;;;;;;;5117807;28;9939;-82
2023/10/14 12:47:48;;;;;;;;;1.00;0.00;;;;;;;;5154119;27;8770;-88
2023/10/14 12:50:14;;;;;;;;;1.00;1.00;;;;;;;;5126158;27;9791;-82
2023/10/14 12:52:40;;;;;;;;;1.00;0.00;;;;;;;;5127701;27;8903;-80
2023/10/14 12:55:14;;;;;;;;;0.00;0.00;;;;;;;;5123107;27;9892;-77
2023/10/14 12:57:39;;;;;;;;;1.00;1.00;;;;;;;;5121168;27;8795;-78
2023/10/14 13:00:10;;;;;;;;;0.50;0.00;;;;;;;;5122367;28;9903;-78
2023/10/14 13:02:39;;;;;;;;;0.75;0.00;;;;;;;;5122165;28;8805;-79
2023/10/14 13:05:05;;;;;;;;;0.00;0.00;;;;;;;;5122980;27;9649;-81
2023/10/14 13:07:30;;;;;;;;;0.00;0.00;;;;;;;;5118882;27;9690;-81
2023/10/14 13:09:56;;;;;;;;;0.00;0.00;;;;;;;;5118663;27;8783;-81
2023/10/14 13:12:21;;;;;;;;;0.00;0.00;;;;;;;;5119882;28;8851;-83
2023/10/14 13:14:48;;;;;;;;;0.00;0.00;;;;;;;;5124180;27;8794;-85
2023/10/14 13:17:13;;;;;;;;;1.25;0.00;;;;;;;;5128508;27;8815;-84
2023/10/14 13:19:40;;;;;;;;;0.00;0.00;;;;;;;;5139543;27;9701;-85
2023/10/14 13:22:09;;;;;;;;;0.00;0.00;;;;;;;;5124557;27;8795;-82
2023/10/14 13:24:35;;;;;;;;;0.00;0.00;;;;;;;;5122051;27;9693;-78
2023/10/14 13:27:01;;;;;;;;;2.00;1.00;;;;;;;;5125922;27;9450;-82
2023/10/14 13:29:26;;;;;;;;;0.00;0.00;;;;;;;;5128594;27;9502;-81
2023/10/14 13:31:51;;;;;;;;;0.33;0.00;;;;;;;;5131569;27;8882;-81
2023/10/14 13:34:18;;;;;;;;;1.00;0.00;;;;;;;;5139874;27;8803;-80
2023/10/14 13:36:44;;;;;;;;;1.00;0.00;;;;;;;;5133633;27;8974;-80
2023/10/14 13:39:15;;;;;;;;;1.00;1.00;;;;;;;;5133847;27;9425;-80
2023/10/14 13:41:42;;;;;;;;;0.00;0.00;;;;;;;;5130310;27;9612;-81
2023/10/14 13:44:07;;;;;;;;;1.25;0.50;;;;;;;;5128581;27;9594;-80
2023/10/14 13:46:32;;;;;;;;;2.50;0.25;;;;;;;;5126899;27;9597;-83
2023/10/14 13:48:57;;;;;;;;;0.00;0.00;;;;;;;;5132275;27;8810;-87
2023/10/14 13:51:24;;;;;;;;;1.00;0.00;;;;;;;;5128339;27;8828;-82
2023/10/14 13:53:49;;;;;;;;;2.00;0.50;;;;;;;;5132835;27;8769;-81
2023/10/14 13:56:15;;;;;;;;;1.00;0.25;;;;;;;;5133875;27;10351;-80
2023/10/14 13:58:40;;;;;;;;;0.33;0.33;;;;;;;;5130278;27;8795;-81
2023/10/14 14:01:08;;;;;;;;;0.00;0.00;;;;;;;;5133665;27;8839;-81
2023/10/14 14:03:33;;;;;;;;;1.00;0.00;;;;;;;;5131164;27;10113;-81
2023/10/14 14:05:59;;;;;;;;;0.00;0.00;;;;;;;;5131137;27;9470;-80
2023/10/14 14:08:25;;;;;;;;;0.00;0.00;;;;;;;;5133174;27;9656;-82
2023/10/14 14:10:51;;;;;;;;;0.00;0.00;;;;;;;;5132423;27;8804;-81
2023/10/14 14:13:16;;;;;;;;;0.00;0.00;;;;;;;;5131675;27;10537;-81
2023/10/14 14:15:44;;;;;;;;;0.00;0.00;;;;;;;;5133429;27;8816;-80
2023/10/14 14:18:10;;;;;;;;;3.00;1.00;;;;;;;;5134606;27;8749;-81
2023/10/14 14:20:35;;;;;;;;;1.25;0.50;;;;;;;;5131262;27;9845;-80
2023/10/14 14:23:02;;;;;;;;;0.25;0.25;;;;;;;;5122988;27;8837;-80
2023/10/14 14:25:28;;;;;;;;;0.00;0.00;;;;;;;;5124146;27;8787;-82
2023/10/14 14:27:54;;;;;;;;;0.00;0.00;;;;;;;;5124930;27;9975;-88
2023/10/14 14:30:20;;;;;;;;;0.00;0.00;;;;;;;;5118090;27;9956;-82
2023/10/14 14:32:45;;;;;;;;;2.00;0.00;;;;;;;;5117958;27;8799;-84
2023/10/14 14:35:10;;;;;;;;;1.75;0.50;;;;;;;;5132009;27;8795;-81
2023/10/14 14:37:36;;;;;;;;;2.00;0.50;;;;;;;;5123352;27;8859;-80
2023/10/14 14:40:16;;;;;;;;;1.00;1.00;;;;;;;;5119140;27;8783;-78
2023/10/14 14:42:42;;;;;;;;;3.00;1.00;;;;;;;;5123715;27;8805;-80
2023/10/14 14:45:09;;;;;;;;;0.00;0.00;;;;;;;;5106969;28;9890;-84
2023/10/14 14:47:35;;;;;;;;;1.00;1.00;;;;;;;;5120292;28;8732;-83
2023/10/14 14:50:01;;;;;;;;;1.00;0.00;;;;;;;;5121720;28;10003;-79
2023/10/14 14:52:26;;;;;;;;;0.00;0.00;;;;;;;;5113378;27;10178;-84
2023/10/14 14:54:53;;;;;;;;;1.25;0.00;;;;;;;;5134394;27;8869;-84
2023/10/14 14:57:19;;;;;;;;;2.00;0.00;;;;;;;;5122490;27;8850;-85
2023/10/14 14:59:48;;;;;;;;;0.00;0.00;;;;;;;;5133150;27;10061;-84
2023/10/14 15:02:13;;;;;;;;;0.75;0.00;;;;;;;;5130213;27;9844;-87
2023/10/14 15:04:38;;;;;;;;;0.50;0.00;;;;;;;;5125194;27;9989;-83
2023/10/14 15:07:04;;;;;;;;;2.75;0.50;;;;;;;;5122345;27;9262;-87
2023/10/14 15:09:29;;;;;;;;;0.00;0.00;;;;;;;;5119355;27;8783;-86
2023/10/14 15:11:55;;;;;;;;;2.50;0.00;;;;;;;;5127766;27;9996;-88
2023/10/14 15:14:21;;;;;;;;;0.00;0.00;;;;;;;;5137415;27;8941;-87
2023/10/14 15:16:47;;;;;;;;;0.50;0.00;;;;;;;;5129271;27;8779;-88
2023/10/14 15:19:15;;;;;;;;;1.00;0.00;;;;;;;;5127615;27;10013;-87
2023/10/14 15:21:40;;;;;;;;;0.00;0.00;;;;;;;;5124626;27;8759;-88